Time;durP1;ratioP1;P1;durP2;ratioP2;P2;SDS_P1;SDS_P2;PMS_P1;PMS_P2;Temp;Humidity;BMP_temperature;BMP_pressure;BME280_temperature;BME280_humidity;BME280_pressure;Samples;Min_cycle;Max_cycle;Signal;HPM_P1;HPM_P2
2024/01/14 00:01:56;;;;;;;7.30;1.27;;;3.70;99.90;;;;;;5050632;28;20032;-90
2024/01/14 00:04:21;;;;;;;8.07;1.30;;;3.70;99.90;;;;;;5069373;28;20044;-90
2024/01/14 00:06:47;;;;;;;2.67;0.93;;;3.70;99.90;;;;;;5075081;28;20130;-90
2024/01/14 00:09:13;;;;;;;7.03;1.20;;;3.80;99.90;;;;;;5072920;28;20408;-90
2024/01/14 00:11:39;;;;;;;6.28;1.65;;;3.80;99.90;;;;;;5056009;28;20028;-90
2024/01/14 00:14:05;;;;;;;3.72;0.73;;;3.90;99.90;;;;;;5070595;28;20040;-90
2024/01/14 00:16:37;;;;;;;5.65;1.10;;;3.90;99.90;;;;;;5071461;28;20041;-89
2024/01/14 00:19:04;;;;;;;6.10;1.33;;;4.00;99.90;;;;;;5055641;28;20033;-90
2024/01/14 00:21:30;;;;;;;4.10;0.93;;;3.90;99.90;;;;;;5072188;28;20109;-90
2024/01/14 00:23:56;;;;;;;8.98;0.95;;;3.90;99.90;;;;;;5057391;28;20426;-89
2024/01/14 00:26:24;;;;;;;6.53;1.10;;;3.90;99.90;;;;;;5071162;28;20040;-89
2024/01/14 00:28:52;;;;;;;8.07;1.25;;;3.90;99.90;;;;;;5054703;28;20466;-89
2024/01/14 00:31:18;;;;;;;3.92;1.17;;;3.90;99.90;;;;;;5070291;28;20079;-89
2024/01/14 00:33:43;;;;;;;4.93;1.05;;;3.80;99.90;;;;;;5072741;28;20064;-89
2024/01/14 00:36:10;;;;;;;9.60;1.27;;;3.80;99.90;;;;;;5073724;28;20032;-89
2024/01/14 00:38:35;;;;;;;3.72;1.02;;;3.80;99.90;;;;;;5053828;28;20058;-90
2024/01/14 00:41:01;;;;;;;2.80;0.98;;;3.80;99.90;;;;;;5055649;28;20571;-90
2024/01/14 00:43:27;;;;;;;4.07;0.75;;;3.80;99.90;;;;;;5054050;28;20519;-90
2024/01/14 00:45:53;;;;;;;5.00;1.23;;;3.80;99.90;;;;;;5086323;28;20526;-90
2024/01/14 00:48:19;;;;;;;1.85;0.65;;;3.80;99.90;;;;;;5055558;28;20078;-90
2024/01/14 00:50:44;;;;;;;1.35;0.68;;;3.80;99.90;;;;;;5073316;28;20076;-90
2024/01/14 00:53:10;;;;;;;4.93;0.70;;;3.80;99.90;;;;;;5071549;28;20086;-90
2024/01/14 00:55:36;;;;;;;4.32;1.88;;;3.80;99.90;;;;;;5071348;28;20033;-90
2024/01/14 00:58:02;;;;;;;5.63;0.85;;;3.80;99.90;;;;;;5070502;28;20045;-90
2024/01/14 01:00:28;;;;;;;2.10;0.65;;;3.80;99.90;;;;;;5053173;28;20132;-90
2024/01/14 01:02:54;;;;;;;4.10;2.42;;;3.80;99.90;;;;;;5053288;28;20040;-90
2024/01/14 01:05:19;;;;;;;4.22;1.30;;;3.80;99.90;;;;;;5071971;28;20056;-90
2024/01/14 01:07:45;;;;;;;1.60;0.43;;;3.80;99.90;;;;;;5055026;28;20039;-90
2024/01/14 01:10:11;;;;;;;3.13;0.82;;;3.90;99.90;;;;;;5069867;28;20040;-89
2024/01/14 01:12:37;;;;;;;4.05;1.08;;;3.90;99.90;;;;;;5070132;28;20041;-90
2024/01/14 01:15:06;;;;;;;3.38;0.80;;;4.00;99.90;;;;;;5070124;28;20040;-90
2024/01/14 01:17:33;;;;;;;1.52;0.60;;;4.00;99.90;;;;;;5074532;28;20120;-90
2024/01/14 01:19:59;;;;;;;3.20;0.90;;;4.00;99.90;;;;;;5054454;28;20515;-89
2024/01/14 01:22:25;;;;;;;8.43;1.50;;;4.00;99.90;;;;;;5056798;28;20684;-89
2024/01/14 01:24:50;;;;;;;1.17;0.22;;;4.10;99.90;;;;;;5070209;28;20520;-90
2024/01/14 01:27:16;;;;;;;2.35;0.32;;;4.10;99.90;;;;;;5069045;28;20035;-90
2024/01/14 01:29:42;;;;;;;0.50;0.30;;;4.10;99.90;;;;;;5055467;28;20152;-90
2024/01/14 01:32:09;;;;;;;0.10;0.10;;;4.20;99.90;;;;;;5070978;28;20201;-90
2024/01/14 01:34:35;;;;;;;5.10;0.65;;;4.30;99.90;;;;;;5054881;28;20036;-90
2024/01/14 01:37:00;;;;;;;1.15;0.47;;;4.30;99.90;;;;;;5065980;28;20037;-90
2024/01/14 01:39:26;;;;;;;5.82;1.00;;;4.30;99.90;;;;;;5073872;28;20070;-90
2024/01/14 01:41:52;;;;;;;4.50;0.77;;;4.40;99.90;;;;;;5085470;28;20100;-90
2024/01/14 01:44:18;;;;;;;5.63;1.17;;;4.30;99.90;;;;;;5083150;28;20046;-90
2024/01/14 01:46:43;;;;;;;5.97;1.27;;;4.30;99.90;;;;;;5053581;28;20081;-90
2024/01/14 01:49:10;;;;;;;7.25;1.08;;;4.30;99.90;;;;;;5070321;28;20111;-90
2024/01/14 01:51:37;;;;;;;3.40;0.43;;;4.40;99.90;;;;;;5068243;28;20036;-90
2024/01/14 01:54:03;;;;;;;2.55;0.63;;;4.40;99.90;;;;;;5068188;28;20029;-91
2024/01/14 01:56:31;;;;;;;2.60;0.47;;;4.40;99.90;;;;;;5083952;28;20033;-90
2024/01/14 01:58:57;;;;;;;3.35;0.73;;;4.40;99.90;;;;;;5053526;28;20075;-90
2024/01/14 02:01:23;;;;;;;2.38;0.32;;;4.40;99.90;;;;;;5052691;28;20070;-90
2024/01/14 02:03:52;;;;;;;3.65;1.20;;;4.40;99.90;;;;;;5054045;28;20071;-90
2024/01/14 02:06:18;;;;;;;7.13;1.08;;;4.40;99.90;;;;;;5069810;28;20166;-90
2024/01/14 02:08:44;;;;;;;4.45;1.38;;;4.30;99.90;;;;;;5052233;28;20036;-90
2024/01/14 02:11:10;;;;;;;5.70;1.02;;;4.30;99.90;;;;;;5052292;28;20032;-90
2024/01/14 02:13:36;;;;;;;0.52;0.20;;;4.30;99.90;;;;;;5071621;28;20033;-91
2024/01/14 02:16:02;;;;;;;3.72;0.68;;;4.40;99.90;;;;;;5055347;28;20043;-90
2024/01/14 02:18:27;;;;;;;6.53;0.93;;;4.40;99.90;;;;;;5068785;28;20396;-90
2024/01/14 02:20:53;;;;;;;3.40;0.68;;;4.40;99.90;;;;;;5068590;28;20048;-91
2024/01/14 02:23:22;;;;;;;6.63;0.88;;;4.40;99.90;;;;;;5068532;28;20042;-90
2024/01/14 02:25:47;;;;;;;1.52;0.57;;;4.40;99.90;;;;;;5068989;28;20104;-89
2024/01/14 02:28:14;;;;;;;5.38;0.75;;;4.40;99.90;;;;;;5069525;28;20044;-90
2024/01/14 02:30:41;;;;;;;1.67;0.13;;;4.40;99.90;;;;;;5071709;28;20064;-90
2024/01/14 02:33:07;;;;;;;2.42;0.47;;;4.30;99.90;;;;;;5067635;28;20036;-90
2024/01/14 02:35:33;;;;;;;4.70;0.63;;;4.30;99.90;;;;;;5070089;28;20507;-91
2024/01/14 02:37:59;;;;;;;5.68;0.95;;;4.30;99.90;;;;;;5051479;28;20091;-90
2024/01/14 02:40:24;;;;;;;4.85;1.98;;;4.20;99.90;;;;;;5052388;28;20036;-90
2024/01/14 02:42:50;;;;;;;6.32;1.05;;;4.20;99.90;;;;;;5070398;28;20502;-90
2024/01/14 02:45:16;;;;;;;3.97;0.95;;;4.20;99.90;;;;;;5069788;28;20029;-89
2024/01/14 02:47:41;;;;;;;4.95;1.13;;;4.20;99.90;;;;;;5051806;28;20131;-90
2024/01/14 02:50:07;;;;;;;1.02;0.80;;;4.20;99.90;;;;;;5068911;28;20113;-90
2024/01/14 02:52:33;;;;;;;6.63;0.95;;;4.20;99.90;;;;;;5051464;28;20054;-90
2024/01/14 02:54:59;;;;;;;3.20;0.70;;;4.20;99.90;;;;;;5051769;28;20055;-91
2024/01/14 02:57:24;;;;;;;12.73;0.73;;;4.20;99.90;;;;;;5069500;28;20043;-90
2024/01/14 02:59:50;;;;;;;7.05;1.13;;;4.30;99.90;;;;;;5070950;28;20543;-90
2024/01/14 03:02:16;;;;;;;3.03;0.38;;;4.20;99.90;;;;;;5068078;28;20032;-90
2024/01/14 03:04:42;;;;;;;9.75;0.95;;;4.30;99.90;;;;;;5068495;28;20109;-91
2024/01/14 03:07:08;;;;;;;4.05;0.65;;;4.30;99.90;;;;;;5067288;28;20041;-91
2024/01/14 03:09:33;;;;;;;2.92;0.82;;;4.20;99.90;;;;;;5052271;28;20051;-90
2024/01/14 03:11:59;;;;;;;9.23;3.30;;;4.30;99.90;;;;;;5068468;28;20025;-90
2024/01/14 03:14:25;;;;;;;5.30;0.77;;;4.20;99.90;;;;;;5067172;28;20020;-90
2024/01/14 03:16:50;;;;;;;9.55;0.75;;;4.20;99.90;;;;;;5068473;28;20479;-90
2024/01/14 03:19:16;;;;;;;5.57;1.40;;;4.20;99.90;;;;;;5052030;28;20040;-90
2024/01/14 03:21:42;;;;;;;5.57;1.27;;;4.20;99.90;;;;;;5051123;28;20040;-90
2024/01/14 03:24:08;;;;;;;9.52;1.27;;;4.10;99.90;;;;;;5069438;28;20060;-91
2024/01/14 03:26:33;;;;;;;6.93;1.00;;;4.10;99.90;;;;;;5069948;28;20041;-90
2024/01/14 03:28:59;;;;;;;1.35;0.50;;;4.10;99.90;;;;;;5069181;28;20035;-90
2024/01/14 03:31:25;;;;;;;2.28;0.30;;;4.10;99.90;;;;;;5050261;28;20037;-90
2024/01/14 03:33:50;;;;;;;2.65;1.05;;;4.10;99.90;;;;;;5067404;28;20407;-90
2024/01/14 03:36:16;;;;;;;2.85;0.68;;;4.00;99.90;;;;;;5049844;28;20025;-90
2024/01/14 03:38:43;;;;;;;3.03;0.47;;;4.00;99.90;;;;;;5050298;28;20041;-90
2024/01/14 03:41:09;;;;;;;9.68;0.70;;;4.00;99.90;;;;;;5069385;28;20107;-90
2024/01/14 03:43:34;;;;;;;5.20;0.80;;;4.00;99.90;;;;;;5068139;28;20132;-90
2024/01/14 03:46:00;;;;;;;5.72;1.05;;;3.90;99.90;;;;;;5067616;28;20438;-89
2024/01/14 03:48:25;;;;;;;6.90;0.65;;;3.80;99.90;;;;;;5050945;28;20071;-90
2024/01/14 03:50:51;;;;;;;2.58;0.43;;;3.80;99.90;;;;;;5067908;28;20037;-90
2024/01/14 03:53:17;;;;;;;5.10;0.80;;;3.80;99.90;;;;;;5050828;28;20476;-90
2024/01/14 03:55:42;;;;;;;3.47;0.95;;;3.80;99.90;;;;;;5051069;28;20037;-90
2024/01/14 03:58:08;;;;;;;6.93;1.05;;;3.80;99.90;;;;;;5070652;28;20040;-90
2024/01/14 04:00:34;;;;;;;7.47;1.40;;;3.80;99.90;;;;;;5068709;28;20116;-89
2024/01/14 04:03:00;;;;;;;2.63;0.75;;;3.90;99.90;;;;;;5051549;28;20028;-90
2024/01/14 04:05:25;;;;;;;3.60;0.47;;;3.80;99.90;;;;;;5066794;28;20080;-90
2024/01/14 04:07:51;;;;;;;2.90;0.70;;;3.80;99.90;;;;;;5066922;28;20044;-90
2024/01/14 04:10:16;;;;;;;5.72;1.38;;;3.80;99.90;;;;;;5068146;28;20037;-90
2024/01/14 04:12:42;;;;;;;21.40;3.20;;;3.80;99.90;;;;;;5051505;28;20036;-90
2024/01/14 04:15:09;;;;;;;6.50;1.52;;;3.80;99.90;;;;;;5065670;28;20048;-90
2024/01/14 04:17:35;;;;;;;6.22;0.98;;;3.80;99.90;;;;;;5051122;28;20033;-90
2024/01/14 04:20:01;;;;;;;4.00;1.20;;;3.70;99.90;;;;;;5066283;28;20037;-90
2024/01/14 04:22:26;;;;;;;2.40;0.75;;;3.70;99.90;;;;;;5068583;28;20522;-90
2024/01/14 04:24:52;;;;;;;9.13;1.17;;;3.60;99.90;;;;;;5051972;28;20121;-90
2024/01/14 04:27:18;;;;;;;2.63;0.85;;;3.60;99.90;;;;;;5070516;28;20040;-89
2024/01/14 04:29:43;;;;;;;3.42;0.70;;;3.60;99.90;;;;;;5067643;28;20041;-90
2024/01/14 04:32:09;;;;;;;4.47;0.75;;;3.60;99.90;;;;;;5049791;28;20418;-90
2024/01/14 04:34:36;;;;;;;5.55;0.73;;;3.60;99.90;;;;;;5066653;28;20033;-90
2024/01/14 04:37:02;;;;;;;2.13;0.65;;;3.60;99.90;;;;;;5068168;28;20254;-90
2024/01/14 04:39:27;;;;;;;4.47;0.90;;;3.50;99.90;;;;;;5050784;28;20040;-90
2024/01/14 04:41:53;;;;;;;1.27;0.30;;;3.50;99.90;;;;;;5067448;28;20522;-90
2024/01/14 04:44:18;;;;;;;8.15;0.90;;;3.60;99.90;;;;;;5066567;28;20090;-89
2024/01/14 04:46:45;;;;;;;4.20;0.90;;;3.60;99.90;;;;;;5067436;28;20040;-89
2024/01/14 04:49:10;;;;;;;4.20;0.57;;;3.60;99.90;;;;;;5066581;28;20028;-90
2024/01/14 04:51:36;;;;;;;3.45;0.70;;;3.70;99.90;;;;;;5053546;28;20041;-90
2024/01/14 04:54:04;;;;;;;1.55;0.40;;;3.70;99.90;;;;;;5072085;28;20072;-90
2024/01/14 04:56:30;;;;;;;3.05;0.30;;;3.70;99.90;;;;;;5073692;28;20032;-90
2024/01/14 04:58:56;;;;;;;2.83;0.45;;;3.70;99.90;;;;;;5052441;28;20067;-89
2024/01/14 05:01:21;;;;;;;4.88;1.52;;;3.80;99.90;;;;;;5069673;28;20076;-90
2024/01/14 05:03:47;;;;;;;9.77;0.75;;;3.80;99.90;;;;;;5052482;28;20044;-90
2024/01/14 05:06:13;;;;;;;1.20;0.20;;;3.80;99.90;;;;;;5069488;28;20044;-89
2024/01/14 05:08:42;;;;;;;4.38;0.80;;;3.80;99.90;;;;;;5071003;28;20032;-90
2024/01/14 05:11:08;;;;;;;7.03;0.63;;;3.90;99.90;;;;;;5070877;28;20078;-90
2024/01/14 05:13:34;;;;;;;8.00;1.25;;;3.90;99.90;;;;;;5053874;28;20613;-89
2024/01/14 05:16:00;;;;;;;1.85;0.50;;;3.90;99.90;;;;;;5069064;28;20029;-89
2024/01/14 05:18:26;;;;;;;3.20;0.85;;;3.90;99.90;;;;;;5052735;28;20051;-90
2024/01/14 05:20:52;;;;;;;5.07;0.80;;;3.90;99.90;;;;;;5052244;28;20113;-90
2024/01/14 05:23:18;;;;;;;1.20;0.38;;;3.90;99.90;;;;;;5053438;28;20044;-90
2024/01/14 05:25:44;;;;;;;6.45;0.85;;;3.90;99.90;;;;;;5073050;28;20045;-90
2024/01/14 05:28:09;;;;;;;2.72;1.30;;;4.00;99.90;;;;;;5069710;28;20036;-91
2024/01/14 05:30:35;;;;;;;3.88;0.95;;;3.90;99.90;;;;;;5052516;28;20450;-90
2024/01/14 05:33:01;;;;;;;1.15;0.35;;;3.90;99.90;;;;;;5068650;28;20467;-90
2024/01/14 05:35:26;;;;;;;5.07;0.45;;;3.90;99.90;;;;;;5053396;28;20051;-90
2024/01/14 05:37:52;;;;;;;4.30;0.43;;;3.80;99.90;;;;;;5070777;28;20063;-90
2024/01/14 05:40:19;;;;;;;7.47;1.33;;;3.80;99.90;;;;;;5069753;28;20044;-90
2024/01/14 05:42:45;;;;;;;4.57;0.70;;;3.80;99.90;;;;;;5054099;28;20495;-90
2024/01/14 05:45:11;;;;;;;9.57;0.82;;;3.80;99.90;;;;;;5050582;28;20043;-89
2024/01/14 05:47:36;;;;;;;3.38;0.70;;;3.70;99.90;;;;;;5053343;28;20059;-90
2024/01/14 05:50:02;;;;;;;3.25;0.25;;;3.70;99.90;;;;;;5069624;28;20028;-90
2024/01/14 05:52:27;;;;;;;1.15;0.43;;;3.80;99.90;;;;;;5071346;28;20411;-90
2024/01/14 05:54:53;;;;;;;2.75;0.85;;;3.70;99.90;;;;;;5055833;28;20492;-90
2024/01/14 05:57:19;;;;;;;4.25;0.80;;;3.70;99.90;;;;;;5053014;28;20043;-89
2024/01/14 05:59:44;;;;;;;2.17;0.40;;;3.70;99.90;;;;;;5069909;28;20047;-89
2024/01/14 06:02:10;;;;;;;7.45;1.15;;;3.60;99.90;;;;;;5067579;28;20036;-90
2024/01/14 06:04:35;;;;;;;4.00;1.05;;;3.60;99.90;;;;;;5054145;28;20736;-90
2024/01/14 06:07:01;;;;;;;2.17;0.30;;;3.60;99.90;;;;;;5069858;28;20072;-90
2024/01/14 06:09:27;;;;;;;4.28;1.02;;;3.60;99.90;;;;;;5071301;28;20217;-91
2024/01/14 06:11:53;;;;;;;2.78;0.43;;;3.60;99.90;;;;;;5069206;28;20511;-90
2024/01/14 06:14:18;;;;;;;6.25;0.80;;;3.60;99.90;;;;;;5068127;28;20037;-90
2024/01/14 06:16:44;;;;;;;1.27;0.47;;;3.60;99.90;;;;;;5068596;28;20028;-91
2024/01/14 06:19:09;;;;;;;1.17;0.20;;;3.60;99.90;;;;;;5069751;28;20064;-90
2024/01/14 06:21:42;;;;;;;3.90;0.52;;;3.60;99.90;;;;;;5069944;28;20045;-90
2024/01/14 06:24:09;;;;;;;7.13;6.40;;;3.60;99.90;;;;;;5067033;28;20032;-90
2024/01/14 06:26:35;;;;;;;3.92;0.75;;;3.60;99.90;;;;;;5052326;28;20101;-89
2024/01/14 06:29:00;;;;;;;5.13;0.73;;;3.60;99.90;;;;;;5068480;28;20131;-89
2024/01/14 06:31:26;;;;;;;1.70;0.30;;;3.70;99.90;;;;;;5067525;28;20074;-89
2024/01/14 06:33:51;;;;;;;4.18;1.33;;;3.70;99.90;;;;;;5069729;28;20422;-89
2024/01/14 06:36:21;;;;;;;6.45;1.10;;;3.70;99.90;;;;;;5071106;28;20435;-90
2024/01/14 06:38:47;;;;;;;3.60;0.57;;;3.70;99.90;;;;;;5071176;28;20381;-89
2024/01/14 06:41:25;;;;;;;4.60;0.82;;;3.70;99.90;;;;;;5071138;28;20043;-89
2024/01/14 06:43:51;;;;;;;1.88;0.60;;;3.80;99.90;;;;;;5067726;28;20071;-89
2024/01/14 06:46:16;;;;;;;4.68;1.30;;;3.80;99.90;;;;;;5050885;28;20072;-89
2024/01/14 06:48:42;;;;;;;3.72;0.55;;;3.80;99.90;;;;;;5054180;28;20040;-89
2024/01/14 06:51:07;;;;;;;2.55;0.50;;;3.80;99.90;;;;;;5052646;28;20568;-90
2024/01/14 06:53:33;;;;;;;1.60;0.70;;;3.80;99.90;;;;;;5069452;28;20036;-91
2024/01/14 06:56:00;;;;;;;5.63;1.38;;;3.80;99.90;;;;;;5051781;28;20033;-89
2024/01/14 06:58:26;;;;;;;3.15;0.63;;;3.80;99.90;;;;;;5067950;28;20048;-90
2024/01/14 07:00:52;;;;;;;11.98;1.27;;;3.80;99.90;;;;;;5069476;28;20044;-90
2024/01/14 07:03:17;;;;;;;7.78;1.00;;;3.80;99.90;;;;;;5070881;28;20212;-89
2024/01/14 07:05:43;;;;;;;7.10;1.17;;;3.80;99.90;;;;;;5054036;28;20037;-89
2024/01/14 07:08:09;;;;;;;5.47;1.08;;;3.70;99.90;;;;;;5067414;28;20043;-90
2024/01/14 07:10:35;;;;;;;8.10;0.98;;;3.70;99.90;;;;;;5068409;28;20523;-89
2024/01/14 07:13:01;;;;;;;6.93;0.85;;;3.70;99.90;;;;;;5068185;28;20032;-90
2024/01/14 07:15:27;;;;;;;8.07;1.00;;;3.70;99.90;;;;;;5051092;28;20171;-89
2024/01/14 07:17:52;;;;;;;5.35;1.13;;;3.70;99.90;;;;;;5069634;28;20036;-90
2024/01/14 07:20:18;;;;;;;4.95;0.95;;;3.70;99.90;;;;;;5066236;28;20036;-90
2024/01/14 07:22:43;;;;;;;6.93;1.55;;;3.70;99.90;;;;;;5051521;28;20068;-89
2024/01/14 07:25:10;;;;;;;1.95;0.40;;;3.70;99.90;;;;;;5066384;28;20038;-89
2024/01/14 07:27:36;;;;;;;5.18;0.57;;;3.70;99.90;;;;;;5050601;28;20385;-89
2024/01/14 07:30:02;;;;;;;3.30;1.13;;;3.70;99.90;;;;;;5049388;28;20064;-90
2024/01/14 07:32:28;;;;;;;2.45;1.00;;;3.70;99.90;;;;;;5065115;28;21300;-89
2024/01/14 07:34:54;;;;;;;2.65;0.70;;;3.70;99.90;;;;;;5053284;28;20089;-88
2024/01/14 07:37:20;;;;;;;3.85;0.52;;;3.70;99.90;;;;;;5067170;28;20028;-89
2024/01/14 07:39:46;;;;;;;8.88;1.20;;;3.70;99.90;;;;;;5067656;28;20127;-90
2024/01/14 07:42:12;;;;;;;0.55;0.30;;;3.70;99.90;;;;;;5049738;28;20040;-89
2024/01/14 07:44:38;;;;;;;1.50;0.52;;;3.70;99.90;;;;;;5047358;28;20058;-89
2024/01/14 07:47:04;;;;;;;2.35;0.65;;;3.70;99.90;;;;;;5061803;28;20064;-89
2024/01/14 07:49:29;;;;;;;4.18;0.82;;;3.80;99.90;;;;;;5069929;28;20514;-90
2024/01/14 07:51:55;;;;;;;1.67;0.70;;;3.80;99.90;;;;;;5051114;28;20043;-90
2024/01/14 07:54:20;;;;;;;3.03;0.55;;;3.80;99.90;;;;;;5071348;28;20397;-91
2024/01/14 07:56:46;;;;;;;3.00;0.50;;;3.80;99.90;;;;;;5069667;28;20029;-90
2024/01/14 07:59:12;;;;;;;6.55;1.27;;;3.80;99.90;;;;;;5069117;28;20035;-90
2024/01/14 08:01:38;;;;;;;1.48;0.40;;;3.80;99.90;;;;;;5068315;28;20039;-90
2024/01/14 08:04:03;;;;;;;3.50;0.40;;;3.80;99.90;;;;;;5050543;28;20040;-90
2024/01/14 08:06:29;;;;;;;2.17;0.50;;;3.90;99.90;;;;;;5068950;28;20032;-90
2024/01/14 08:08:55;;;;;;;4.70;0.88;;;3.90;99.90;;;;;;5068839;28;20415;-89
2024/01/14 08:11:21;;;;;;;4.05;0.40;;;3.90;99.90;;;;;;5051226;28;20047;-90
2024/01/14 08:13:47;;;;;;;2.95;0.70;;;3.90;99.90;;;;;;5068072;28;20411;-90
2024/01/14 08:16:14;;;;;;;2.45;0.50;;;3.90;99.90;;;;;;5068672;28;20041;-90
2024/01/14 08:18:39;;;;;;;1.88;0.80;;;3.90;99.90;;;;;;5069316;28;20035;-90
2024/01/14 08:21:09;;;;;;;3.88;0.70;;;4.00;99.90;;;;;;5067080;28;20036;-90
2024/01/14 08:23:36;;;;;;;2.00;0.50;;;4.00;99.90;;;;;;5051427;28;20045;-90
2024/01/14 08:26:02;;;;;;;0.77;0.35;;;4.00;99.90;;;;;;5069002;28;20036;-90
2024/01/14 08:28:30;;;;;;;2.30;0.75;;;4.00;99.90;;;;;;5055623;28;20461;-90
2024/01/14 08:30:56;;;;;;;1.90;0.90;;;4.00;99.90;;;;;;5070594;28;20036;-90
2024/01/14 08:33:22;;;;;;;0.73;0.45;;;4.00;99.90;;;;;;5072379;28;20396;-89
2024/01/14 08:35:47;;;;;;;9.05;1.20;;;4.00;99.90;;;;;;5073884;28;20054;-90
2024/01/14 08:38:13;;;;;;;3.33;1.05;;;4.00;99.90;;;;;;5070467;28;20028;-90
2024/01/14 08:40:38;;;;;;;6.53;1.27;;;4.00;99.90;;;;;;5054724;28;20410;-90
2024/01/14 08:43:04;;;;;;;5.97;1.02;;;4.00;99.90;;;;;;5070826;28;20495;-90
2024/01/14 08:45:30;;;;;;;3.03;1.10;;;4.10;99.90;;;;;;5070474;28;20768;-91
2024/01/14 08:47:55;;;;;;;3.67;1.08;;;4.10;99.90;;;;;;5057670;28;20040;-91
2024/01/14 08:50:21;;;;;;;2.75;0.65;;;4.10;99.90;;;;;;5054577;28;20075;-91
2024/01/14 08:52:46;;;;;;;6.47;1.58;;;4.20;99.90;;;;;;5070285;28;20055;-90
2024/01/14 08:55:14;;;;;;;12.52;1.77;;;4.20;99.90;;;;;;5069400;28;20068;-90
2024/01/14 08:57:40;;;;;;;9.85;1.40;;;4.20;99.90;;;;;;5053983;28;20074;-90
2024/01/14 09:00:06;;;;;;;4.40;1.40;;;4.20;99.90;;;;;;5073592;28;20476;-91
2024/01/14 09:02:32;;;;;;;4.97;1.48;;;4.20;99.90;;;;;;5073565;28;20074;-90
2024/01/14 09:04:58;;;;;;;6.20;1.75;;;4.20;99.90;;;;;;5069098;28;20063;-90
2024/01/14 09:07:24;;;;;;;6.40;1.92;;;4.30;99.90;;;;;;5050293;28;20508;-90
2024/01/14 09:09:50;;;;;;;6.65;1.65;;;4.20;99.90;;;;;;5065255;28;20040;-90
2024/01/14 09:12:15;;;;;;;5.95;2.03;;;4.30;99.90;;;;;;5069236;28;20047;-90
2024/01/14 09:14:44;;;;;;;5.82;2.15;;;4.30;99.90;;;;;;5070168;28;20488;-90
2024/01/14 09:17:11;;;;;;;7.45;2.28;;;4.20;99.90;;;;;;5068225;28;20071;-89
2024/01/14 09:19:37;;;;;;;5.13;1.77;;;4.30;99.90;;;;;;5050525;28;20044;-90
2024/01/14 09:22:03;;;;;;;7.78;1.80;;;4.30;99.90;;;;;;5067788;28;20086;-90
2024/01/14 09:24:29;;;;;;;4.13;1.38;;;4.20;99.90;;;;;;5051041;28;20045;-89
2024/01/14 09:26:54;;;;;;;4.25;1.55;;;4.20;99.90;;;;;;5070788;28;20036;-91
2024/01/14 09:29:21;;;;;;;9.07;2.50;;;4.20;99.90;;;;;;5070365;28;20522;-90
2024/01/14 09:31:46;;;;;;;3.10;1.27;;;4.30;99.90;;;;;;5050442;28;20505;-90
2024/01/14 09:34:12;;;;;;;9.05;1.75;;;4.30;99.90;;;;;;5050979;28;20045;-90
2024/01/14 09:36:40;;;;;;;5.15;1.65;;;4.30;99.90;;;;;;5066140;28;20403;-90
2024/01/14 09:39:10;;;;;;;5.45;2.40;;;4.30;99.90;;;;;;5053083;28;20496;-90
2024/01/14 09:42:09;;;;;;;3.60;1.30;;;4.30;99.90;;;;;;5053364;28;20040;-90
2024/01/14 09:44:37;;;;;;;8.10;1.95;;;4.30;99.90;;;;;;5072280;28;20109;-89
2024/01/14 09:47:04;;;;;;;5.20;2.03;;;4.30;99.90;;;;;;5066901;28;20040;-89
2024/01/14 09:49:30;;;;;;;10.38;2.20;;;4.30;99.90;;;;;;5064370;28;20119;-90
2024/01/14 09:52:01;;;;;;;7.70;2.78;;;4.30;99.90;;;;;;5066530;28;20028;-90
2024/01/14 09:54:27;;;;;;;6.65;2.58;;;4.30;99.90;;;;;;5050473;28;20033;-90
2024/01/14 09:56:54;;;;;;;7.95;2.80;;;4.30;99.90;;;;;;5068890;28;20160;-91
2024/01/14 09:59:21;;;;;;;6.38;1.98;;;4.30;99.90;;;;;;5066140;28;20040;-90
2024/01/14 10:01:46;;;;;;;5.25;2.45;;;4.30;99.90;;;;;;5071490;28;20040;-90
2024/01/14 10:04:16;;;;;;;9.80;2.33;;;4.30;99.90;;;;;;5052108;28;20040;-91
2024/01/14 10:06:43;;;;;;;6.55;2.92;;;4.20;99.90;;;;;;5069013;28;20514;-91
2024/01/14 10:09:09;;;;;;;6.57;2.38;;;4.20;99.90;;;;;;5068912;28;20059;-90
2024/01/14 10:11:35;;;;;;;4.80;2.30;;;4.20;99.90;;;;;;5069897;28;20487;-90
2024/01/14 10:14:03;;;;;;;9.57;3.42;;;4.20;99.90;;;;;;5052648;28;20051;-90
2024/01/14 10:16:29;;;;;;;6.95;2.50;;;4.20;99.90;;;;;;5069898;28;20048;-90
2024/01/14 10:18:57;;;;;;;5.55;2.40;;;4.10;99.90;;;;;;5070211;28;20041;-90
2024/01/14 10:21:24;;;;;;;7.68;3.58;;;4.20;99.90;;;;;;5051924;28;20041;-90
2024/01/14 10:23:50;;;;;;;10.15;4.15;;;4.10;99.90;;;;;;5067169;28;20522;-89
2024/01/14 10:26:17;;;;;;;9.70;3.95;;;4.10;99.90;;;;;;5053641;28;20036;-90
2024/01/14 10:28:42;;;;;;;13.18;5.50;;;4.20;99.90;;;;;;5068993;28;20111;-90
2024/01/14 10:31:08;;;;;;;11.48;4.95;;;4.20;99.90;;;;;;5053546;28;20120;-91
2024/01/14 10:33:35;;;;;;;13.45;4.75;;;4.20;99.90;;;;;;5068630;28;20511;-90
2024/01/14 10:36:06;;;;;;;13.38;5.38;;;4.20;99.90;;;;;;5051922;28;20032;-90
2024/01/14 10:38:31;;;;;;;11.70;4.95;;;4.10;99.90;;;;;;5069273;28;20036;-90
2024/01/14 10:40:57;;;;;;;11.35;5.35;;;4.20;99.90;;;;;;5069858;28;20119;-90
2024/01/14 10:43:26;;;;;;;14.75;7.20;;;4.10;99.90;;;;;;5069796;28;20504;-90
2024/01/14 10:45:52;;;;;;;16.55;7.63;;;4.10;99.90;;;;;;5053381;28;20032;-90
2024/01/14 10:48:26;;;;;;;11.98;5.85;;;4.10;99.90;;;;;;5069393;28;20036;-90
2024/01/14 10:51:00;;;;;;;17.00;6.70;;;4.10;99.90;;;;;;5051931;28;20036;-90
2024/01/14 10:53:36;;;;;;;8.75;4.32;;;4.10;99.90;;;;;;5069100;28;20075;-90
2024/01/14 10:56:06;;;;;;;15.65;7.03;;;4.10;99.90;;;;;;5052438;28;20028;-90
2024/01/14 10:58:36;;;;;;;17.60;7.85;;;4.20;99.90;;;;;;5054392;28;20036;-90
2024/01/14 11:01:08;;;;;;;14.68;6.18;;;4.10;99.90;;;;;;5066359;28;20032;-90
2024/01/14 11:03:34;;;;;;;15.73;4.90;;;4.20;99.90;;;;;;5050698;28;21012;-90
2024/01/14 11:06:01;;;;;;;6.95;3.45;;;4.30;99.90;;;;;;5068834;28;20510;-90
2024/01/14 11:08:27;;;;;;;16.35;6.93;;;4.30;99.90;;;;;;5050857;28;20036;-90
2024/01/14 11:10:54;;;;;;;13.88;6.40;;;4.30;99.90;;;;;;5067768;28;20032;-90
2024/01/14 11:13:31;;;;;;;14.98;6.07;;;4.30;99.90;;;;;;5068165;28;20032;-90
2024/01/14 11:16:03;;;;;;;14.07;6.25;;;4.40;99.90;;;;;;5050379;28;20403;-90
2024/01/14 11:19:05;;;;;;;16.15;5.88;;;4.40;99.90;;;;;;5051823;28;20468;-90
2024/01/14 11:22:13;;;;;;;14.70;5.35;;;4.40;99.90;;;;;;5047503;28;20059;-90
2024/01/14 11:24:38;;;;;;;9.15;4.60;;;4.50;99.90;;;;;;5071067;28;20048;-90
2024/01/14 11:27:04;;;;;;;14.73;6.72;;;4.50;99.90;;;;;;5051493;28;20032;-90
2024/01/14 11:29:36;;;;;;;12.70;5.90;;;4.50;99.90;;;;;;5067727;28;20048;-90
2024/01/14 11:32:12;;;;;;;10.45;5.13;;;4.60;99.90;;;;;;5050692;28;20533;-90
2024/01/14 11:34:47;;;;;;;9.77;3.92;;;4.60;99.90;;;;;;5051288;28;20040;-90
2024/01/14 11:37:35;;;;;;;8.57;4.22;;;4.70;99.90;;;;;;5050904;28;20045;-90
2024/01/14 11:40:06;;;;;;;6.95;2.53;;;4.70;99.90;;;;;;5066022;28;20047;-90
2024/01/14 11:43:14;;;;;;;10.38;4.63;;;4.70;99.90;;;;;;5049371;28;20544;-91
2024/01/14 11:45:40;;;;;;;10.90;4.22;;;4.60;99.90;;;;;;5065926;28;20530;-91
2024/01/14 11:48:08;;;;;;;10.95;4.40;;;4.60;99.90;;;;;;5051717;28;20033;-92
2024/01/14 11:50:36;;;;;;;12.23;5.10;;;4.60;99.90;;;;;;5050135;28;20036;-91
2024/01/14 11:53:04;;;;;;;8.25;3.40;;;4.60;99.90;;;;;;5067674;28;20035;-90
2024/01/14 11:55:31;;;;;;;9.18;4.45;;;4.60;99.90;;;;;;5067669;28;20044;-91
2024/01/14 11:58:17;;;;;;;13.73;6.32;;;4.60;99.90;;;;;;5050481;28;20028;-91
2024/01/14 12:00:46;;;;;;;12.25;4.72;;;4.60;99.90;;;;;;5054790;28;20040;-90
2024/01/14 12:03:15;;;;;;;11.10;3.97;;;4.60;99.90;;;;;;5072105;28;20041;-91
2024/01/14 12:05:42;;;;;;;7.97;3.97;;;4.70;99.90;;;;;;5055954;28;20456;-91
2024/01/14 12:08:08;;;;;;;12.00;4.80;;;4.70;99.90;;;;;;5054145;28;20551;-91
2024/01/14 12:10:35;;;;;;;12.93;5.30;;;4.70;99.90;;;;;;5054291;28;20039;-91
2024/01/14 12:13:03;;;;;;;6.65;2.47;;;4.70;99.90;;;;;;5054310;28;20125;-90
2024/01/14 12:15:28;;;;;;;6.07;2.38;;;4.70;99.90;;;;;;5054515;28;20036;-91
2024/01/14 12:17:58;;;;;;;12.23;5.43;;;4.70;99.90;;;;;;5056171;28;20039;-90
2024/01/14 12:20:25;;;;;;;8.77;4.07;;;4.60;99.90;;;;;;5070641;28;20186;-91
2024/01/14 12:22:59;;;;;;;15.00;5.50;;;4.60;99.90;;;;;;5071663;28;20052;-90
2024/01/14 12:25:26;;;;;;;12.27;5.25;;;4.60;99.90;;;;;;5071078;28;20033;-90
2024/01/14 12:27:52;;;;;;;12.60;5.82;;;4.60;99.90;;;;;;5072854;28;20035;-89
2024/01/14 12:30:29;;;;;;;11.65;4.47;;;4.50;99.90;;;;;;5070430;28;20033;-90
2024/01/14 12:32:56;;;;;;;10.93;5.53;;;4.50;99.90;;;;;;5072329;28;20044;-90
2024/01/14 12:35:32;;;;;;;11.68;5.13;;;4.50;99.90;;;;;;5070824;28;20029;-90
2024/01/14 12:38:00;;;;;;;8.77;3.83;;;4.50;99.90;;;;;;5071436;28;20400;-91
2024/01/14 12:40:27;;;;;;;11.30;4.20;;;4.50;99.90;;;;;;5054499;28;20067;-91
2024/01/14 12:42:52;;;;;;;16.17;5.60;;;4.40;99.90;;;;;;5054204;28;20041;-91
2024/01/14 12:45:18;;;;;;;12.95;4.80;;;4.40;99.90;;;;;;5054100;28;20049;-90
2024/01/14 12:47:44;;;;;;;11.40;5.35;;;4.40;99.90;;;;;;5054082;28;20515;-90
2024/01/14 12:50:11;;;;;;;15.45;7.15;;;4.40;99.90;;;;;;5069430;28;20086;-90
2024/01/14 12:52:37;;;;;;;14.77;5.47;;;4.40;99.90;;;;;;5067526;28;20036;-90
2024/01/14 12:55:03;;;;;;;8.68;3.65;;;4.40;99.90;;;;;;5067419;28;20102;-90